sensor_id;sensor_type;location;lat;lon;timestamp;temperature;humidity
53978;DHT22;39886;47.984;-1.586;2022-11-06T00:00:17;18.20;68.10
53978;DHT22;39886;47.984;-1.586;2022-11-06T00:02:44;18.20;68.10
53978;DHT22;39886;47.984;-1.586;2022-11-06T00:05:10;18.20;68.20
53978;DHT22;39886;47.984;-1.586;2022-11-06T00:07:55;18.20;68.10
53978;DHT22;39886;47.984;-1.586;2022-11-06T00:10:21;18.20;68.10
53978;DHT22;39886;47.984;-1.586;2022-11-06T00:12:47;18.20;68.10
53978;DHT22;39886;47.984;-1.586;2022-11-06T00:15:13;18.10;68.10
53978;DHT22;39886;47.984;-1.586;2022-11-06T00:17:39;18.20;68.20
53978;DHT22;39886;47.984;-1.586;2022-11-06T00:20:06;18.20;68.20
53978;DHT22;39886;47.984;-1.586;2022-11-06T00:22:33;18.20;68.20
53978;DHT22;39886;47.984;-1.586;2022-11-06T00:24:59;18.20;68.20
53978;DHT22;39886;47.984;-1.586;2022-11-06T00:27:25;18.20;68.20
53978;DHT22;39886;47.984;-1.586;2022-11-06T00:29:51;18.20;68.20
53978;DHT22;39886;47.984;-1.586;2022-11-06T00:32:17;18.20;68.20
53978;DHT22;39886;47.984;-1.586;2022-11-06T00:34:43;18.20;68.20
53978;DHT22;39886;47.984;-1.586;2022-11-06T00:37:09;18.20;68.20
53978;DHT22;39886;47.984;-1.586;2022-11-06T00:39:34;18.20;68.20
53978;DHT22;39886;47.984;-1.586;2022-11-06T00:42:00;18.20;68.20
53978;DHT22;39886;47.984;-1.586;2022-11-06T00:44:26;18.10;68.10
53978;DHT22;39886;47.984;-1.586;2022-11-06T00:46:51;18.20;68.20
53978;DHT22;39886;47.984;-1.586;2022-11-06T00:49:17;18.20;68.20
53978;DHT22;39886;47.984;-1.586;2022-11-06T00:51:43;18.20;68.20
53978;DHT22;39886;47.984;-1.586;2022-11-06T00:54:11;18.20;68.20
53978;DHT22;39886;47.984;-1.586;2022-11-06T00:56:37;18.20;68.20
53978;DHT22;39886;47.984;-1.586;2022-11-06T00:59:04;18.20;68.20
53978;DHT22;39886;47.984;-1.586;2022-11-06T01:01:32;18.20;68.20
53978;DHT22;39886;47.984;-1.586;2022-11-06T01:04:18;18.10;68.10
53978;DHT22;39886;47.984;-1.586;2022-11-06T01:06:47;18.20;68.10
53978;DHT22;39886;47.984;-1.586;2022-11-06T01:09:16;18.20;68.20
53978;DHT22;39886;47.984;-1.586;2022-11-06T01:11:48;18.20;68.20
53978;DHT22;39886;47.984;-1.586;2022-11-06T01:14:16;18.20;68.20
53978;DHT22;39886;47.984;-1.586;2022-11-06T01:16:43;18.20;68.20
53978;DHT22;39886;47.984;-1.586;2022-11-06T01:19:11;18.20;68.20
53978;DHT22;39886;47.984;-1.586;2022-11-06T01:21:38;18.20;68.20
53978;DHT22;39886;47.984;-1.586;2022-11-06T01:24:11;18.20;68.20
53978;DHT22;39886;47.984;-1.586;2022-11-06T01:26:37;18.20;68.20
53978;DHT22;39886;47.984;-1.586;2022-11-06T01:29:05;18.20;68.20
53978;DHT22;39886;47.984;-1.586;2022-11-06T01:31:32;18.10;68.20
53978;DHT22;39886;47.984;-1.586;2022-11-06T01:34:00;18.20;68.20
53978;DHT22;39886;47.984;-1.586;2022-11-06T01:36:26;18.20;68.30
53978;DHT22;39886;47.984;-1.586;2022-11-06T01:38:54;18.20;68.30
53978;DHT22;39886;47.984;-1.586;2022-11-06T01:41:23;18.20;68.30
53978;DHT22;39886;47.984;-1.586;2022-11-06T01:43:53;18.20;68.30
53978;DHT22;39886;47.984;-1.586;2022-11-06T01:46:22;18.20;68.30
53978;DHT22;39886;47.984;-1.586;2022-11-06T01:49:10;18.20;68.30
53978;DHT22;39886;47.984;-1.586;2022-11-06T01:51:49;18.20;68.30
53978;DHT22;39886;47.984;-1.586;2022-11-06T01:54:16;18.20;68.30
53978;DHT22;39886;47.984;-1.586;2022-11-06T01:56:43;18.10;68.30
53978;DHT22;39886;47.984;-1.586;2022-11-06T01:59:12;18.20;68.30
53978;DHT22;39886;47.984;-1.586;2022-11-06T02:01:40;18.10;68.30
53978;DHT22;39886;47.984;-1.586;2022-11-06T02:04:32;18.20;68.30
53978;DHT22;39886;47.984;-1.586;2022-11-06T02:06:58;18.20;68.30
53978;DHT22;39886;47.984;-1.586;2022-11-06T02:09:24;18.10;68.30
53978;DHT22;39886;47.984;-1.586;2022-11-06T02:11:55;18.10;68.30
53978;DHT22;39886;47.984;-1.586;2022-11-06T02:14:39;18.10;68.30
53978;DHT22;39886;47.984;-1.586;2022-11-06T02:17:16;18.10;68.40
53978;DHT22;39886;47.984;-1.586;2022-11-06T02:22:25;18.20;68.40
53978;DHT22;39886;47.984;-1.586;2022-11-06T02:27:34;18.10;68.30
53978;DHT22;39886;47.984;-1.586;2022-11-06T02:30:11;18.10;68.40
53978;DHT22;39886;47.984;-1.586;2022-11-06T02:35:37;18.10;68.40
53978;DHT22;39886;47.984;-1.586;2022-11-06T02:38:10;18.10;68.40
53978;DHT22;39886;47.984;-1.586;2022-11-06T02:40:41;18.10;68.40
53978;DHT22;39886;47.984;-1.586;2022-11-06T02:43:08;18.10;68.50
53978;DHT22;39886;47.984;-1.586;2022-11-06T02:45:48;18.10;68.50
53978;DHT22;39886;47.984;-1.586;2022-11-06T02:48:19;18.10;68.50
53978;DHT22;39886;47.984;-1.586;2022-11-06T02:50:47;18.10;68.50
53978;DHT22;39886;47.984;-1.586;2022-11-06T02:53:17;18.10;68.50
53978;DHT22;39886;47.984;-1.586;2022-11-06T02:55:47;18.10;68.50
53978;DHT22;39886;47.984;-1.586;2022-11-06T02:58:21;18.10;68.50
53978;DHT22;39886;47.984;-1.586;2022-11-06T03:00:59;18.10;68.50
53978;DHT22;39886;47.984;-1.586;2022-11-06T03:03:32;18.10;68.50
53978;DHT22;39886;47.984;-1.586;2022-11-06T03:06:19;18.10;68.60
53978;DHT22;39886;47.984;-1.586;2022-11-06T03:09:08;18.10;68.60
53978;DHT22;39886;47.984;-1.586;2022-11-06T03:11:36;18.10;68.60
53978;DHT22;39886;47.984;-1.586;2022-11-06T03:14:28;18.10;68.60
53978;DHT22;39886;47.984;-1.586;2022-11-06T03:19:58;18.10;68.60
53978;DHT22;39886;47.984;-1.586;2022-11-06T03:22:42;18.10;68.60
53978;DHT22;39886;47.984;-1.586;2022-11-06T03:25:43;18.10;68.60
53978;DHT22;39886;47.984;-1.586;2022-11-06T03:30:54;18.10;68.70
53978;DHT22;39886;47.984;-1.586;2022-11-06T03:36:25;18.10;68.80
53978;DHT22;39886;47.984;-1.586;2022-11-06T03:38:58;18.10;68.80
53978;DHT22;39886;47.984;-1.586;2022-11-06T03:41:42;18.10;68.80
53978;DHT22;39886;47.984;-1.586;2022-11-06T03:44:13;18.10;68.80
53978;DHT22;39886;47.984;-1.586;2022-11-06T03:46:56;18.10;68.80
53978;DHT22;39886;47.984;-1.586;2022-11-06T03:49:35;18.10;68.80
53978;DHT22;39886;47.984;-1.586;2022-11-06T03:52:08;18.10;68.80
53978;DHT22;39886;47.984;-1.586;2022-11-06T03:54:43;18.00;68.80
53978;DHT22;39886;47.984;-1.586;2022-11-06T03:57:21;18.00;68.80
53978;DHT22;39886;47.984;-1.586;2022-11-06T03:59:54;18.00;68.80
53978;DHT22;39886;47.984;-1.586;2022-11-06T04:02:23;18.10;68.90
53978;DHT22;39886;47.984;-1.586;2022-11-06T04:04:57;18.10;68.90
53978;DHT22;39886;47.984;-1.586;2022-11-06T04:07:33;18.00;68.80
53978;DHT22;39886;47.984;-1.586;2022-11-06T04:10:02;18.10;68.90
53978;DHT22;39886;47.984;-1.586;2022-11-06T04:12:48;18.00;68.80
53978;DHT22;39886;47.984;-1.586;2022-11-06T04:15:39;18.10;68.90
53978;DHT22;39886;47.984;-1.586;2022-11-06T04:18:18;18.00;68.80
53978;DHT22;39886;47.984;-1.586;2022-11-06T04:21:03;18.10;68.90
53978;DHT22;39886;47.984;-1.586;2022-11-06T04:26:57;18.00;68.90
53978;DHT22;39886;47.984;-1.586;2022-11-06T04:29:43;18.00;68.90
53978;DHT22;39886;47.984;-1.586;2022-11-06T04:32:45;18.00;69.00
53978;DHT22;39886;47.984;-1.586;2022-11-06T04:44:16;18.00;68.90
53978;DHT22;39886;47.984;-1.586;2022-11-06T04:46:29;18.00;69.00
53978;DHT22;39886;47.984;-1.586;2022-11-06T04:48:57;18.00;69.00
53978;DHT22;39886;47.984;-1.586;2022-11-06T04:51:26;18.00;69.00
53978;DHT22;39886;47.984;-1.586;2022-11-06T04:53:54;18.00;69.00
53978;DHT22;39886;47.984;-1.586;2022-11-06T04:56:26;18.00;69.00
53978;DHT22;39886;47.984;-1.586;2022-11-06T04:58:53;18.00;69.00
53978;DHT22;39886;47.984;-1.586;2022-11-06T05:01:19;18.00;69.00
53978;DHT22;39886;47.984;-1.586;2022-11-06T05:03:44;18.00;69.00
53978;DHT22;39886;47.984;-1.586;2022-11-06T05:06:10;18.00;69.00
53978;DHT22;39886;47.984;-1.586;2022-11-06T05:08:36;18.00;69.10
53978;DHT22;39886;47.984;-1.586;2022-11-06T05:11:02;18.00;69.00
53978;DHT22;39886;47.984;-1.586;2022-11-06T05:13:27;18.00;69.00
53978;DHT22;39886;47.984;-1.586;2022-11-06T05:15:57;18.00;69.00
53978;DHT22;39886;47.984;-1.586;2022-11-06T05:18:24;18.00;69.10
53978;DHT22;39886;47.984;-1.586;2022-11-06T05:20:50;18.00;69.10
53978;DHT22;39886;47.984;-1.586;2022-11-06T05:23:35;18.00;69.10
53978;DHT22;39886;47.984;-1.586;2022-11-06T05:26:05;18.00;69.10
53978;DHT22;39886;47.984;-1.586;2022-11-06T05:28:32;18.00;69.10
53978;DHT22;39886;47.984;-1.586;2022-11-06T05:30:58;18.00;69.10
53978;DHT22;39886;47.984;-1.586;2022-11-06T05:33:24;18.00;69.10
53978;DHT22;39886;47.984;-1.586;2022-11-06T05:35:50;18.00;69.10
53978;DHT22;39886;47.984;-1.586;2022-11-06T05:38:16;18.00;69.10
53978;DHT22;39886;47.984;-1.586;2022-11-06T05:40:42;18.00;69.10
53978;DHT22;39886;47.984;-1.586;2022-11-06T05:43:08;18.00;69.10
53978;DHT22;39886;47.984;-1.586;2022-11-06T05:45:33;18.00;69.10
53978;DHT22;39886;47.984;-1.586;2022-11-06T05:47:59;18.00;69.20
53978;DHT22;39886;47.984;-1.586;2022-11-06T05:50:25;18.00;69.20
53978;DHT22;39886;47.984;-1.586;2022-11-06T05:52:51;18.00;69.10
53978;DHT22;39886;47.984;-1.586;2022-11-06T05:55:17;18.00;69.20
53978;DHT22;39886;47.984;-1.586;2022-11-06T05:57:43;18.00;69.20
53978;DHT22;39886;47.984;-1.586;2022-11-06T06:00:09;18.00;69.20
53978;DHT22;39886;47.984;-1.586;2022-11-06T06:02:36;18.00;69.20
53978;DHT22;39886;47.984;-1.586;2022-11-06T06:05:02;18.00;69.20
53978;DHT22;39886;47.984;-1.586;2022-11-06T06:07:28;18.00;69.20
53978;DHT22;39886;47.984;-1.586;2022-11-06T06:09:54;18.00;69.30
53978;DHT22;39886;47.984;-1.586;2022-11-06T06:12:19;18.00;69.30
53978;DHT22;39886;47.984;-1.586;2022-11-06T06:14:48;18.00;69.30
53978;DHT22;39886;47.984;-1.586;2022-11-06T06:17:14;18.00;69.30
53978;DHT22;39886;47.984;-1.586;2022-11-06T06:19:40;18.00;69.30
53978;DHT22;39886;47.984;-1.586;2022-11-06T06:22:05;18.00;69.30
53978;DHT22;39886;47.984;-1.586;2022-11-06T06:24:31;18.00;69.30
53978;DHT22;39886;47.984;-1.586;2022-11-06T06:26:57;18.00;69.30
53978;DHT22;39886;47.984;-1.586;2022-11-06T06:29:23;18.00;69.40
53978;DHT22;39886;47.984;-1.586;2022-11-06T06:31:48;18.00;69.40
53978;DHT22;39886;47.984;-1.586;2022-11-06T06:34:14;18.00;69.40
53978;DHT22;39886;47.984;-1.586;2022-11-06T06:36:40;18.00;69.40
53978;DHT22;39886;47.984;-1.586;2022-11-06T06:39:06;18.00;69.40
53978;DHT22;39886;47.984;-1.586;2022-11-06T06:41:32;18.00;69.40
53978;DHT22;39886;47.984;-1.586;2022-11-06T06:43:58;18.00;69.40
53978;DHT22;39886;47.984;-1.586;2022-11-06T06:46:24;18.00;69.40
53978;DHT22;39886;47.984;-1.586;2022-11-06T06:48:49;18.00;69.40
53978;DHT22;39886;47.984;-1.586;2022-11-06T06:51:15;18.00;69.40
53978;DHT22;39886;47.984;-1.586;2022-11-06T06:53:41;18.00;69.40
53978;DHT22;39886;47.984;-1.586;2022-11-06T06:56:08;18.00;69.40
53978;DHT22;39886;47.984;-1.586;2022-11-06T06:58:33;18.00;69.50
53978;DHT22;39886;47.984;-1.586;2022-11-06T07:01:04;18.00;69.50
53978;DHT22;39886;47.984;-1.586;2022-11-06T07:03:30;18.00;69.50
53978;DHT22;39886;47.984;-1.586;2022-11-06T07:05:58;18.00;69.50
53978;DHT22;39886;47.984;-1.586;2022-11-06T07:08:27;18.00;69.50
53978;DHT22;39886;47.984;-1.586;2022-11-06T07:10:59;18.00;69.50
53978;DHT22;39886;47.984;-1.586;2022-11-06T07:13:25;18.00;69.50
53978;DHT22;39886;47.984;-1.586;2022-11-06T07:15:51;18.00;69.60
53978;DHT22;39886;47.984;-1.586;2022-11-06T07:18:17;18.00;69.60
53978;DHT22;39886;47.984;-1.586;2022-11-06T07:20:42;18.00;69.60
53978;DHT22;39886;47.984;-1.586;2022-11-06T07:23:08;18.00;69.60
53978;DHT22;39886;47.984;-1.586;2022-11-06T07:25:34;18.00;69.60
53978;DHT22;39886;47.984;-1.586;2022-11-06T07:28:01;18.00;69.60
53978;DHT22;39886;47.984;-1.586;2022-11-06T07:30:27;18.00;69.60
53978;DHT22;39886;47.984;-1.586;2022-11-06T07:32:53;18.00;69.60
53978;DHT22;39886;47.984;-1.586;2022-11-06T07:35:19;18.00;69.60
53978;DHT22;39886;47.984;-1.586;2022-11-06T07:37:45;18.00;69.70
53978;DHT22;39886;47.984;-1.586;2022-11-06T07:40:10;18.00;69.70
53978;DHT22;39886;47.984;-1.586;2022-11-06T07:42:36;18.00;69.70
53978;DHT22;39886;47.984;-1.586;2022-11-06T07:45:02;18.00;69.70
53978;DHT22;39886;47.984;-1.586;2022-11-06T07:47:31;18.00;69.80
53978;DHT22;39886;47.984;-1.586;2022-11-06T07:49:57;18.00;69.70
53978;DHT22;39886;47.984;-1.586;2022-11-06T07:52:22;18.00;69.70
53978;DHT22;39886;47.984;-1.586;2022-11-06T07:54:48;18.00;69.70
53978;DHT22;39886;47.984;-1.586;2022-11-06T07:57:15;18.00;69.70
53978;DHT22;39886;47.984;-1.586;2022-11-06T07:59:41;18.00;69.80
53978;DHT22;39886;47.984;-1.586;2022-11-06T08:02:10;18.00;69.80
53978;DHT22;39886;47.984;-1.586;2022-11-06T08:04:37;18.00;69.80
53978;DHT22;39886;47.984;-1.586;2022-11-06T08:07:02;18.00;69.80
53978;DHT22;39886;47.984;-1.586;2022-11-06T08:09:28;18.00;69.80
53978;DHT22;39886;47.984;-1.586;2022-11-06T08:11:54;18.00;69.80
53978;DHT22;39886;47.984;-1.586;2022-11-06T08:14:19;18.00;69.80
53978;DHT22;39886;47.984;-1.586;2022-11-06T08:16:45;18.00;69.80
53978;DHT22;39886;47.984;-1.586;2022-11-06T08:19:11;18.00;69.80
53978;DHT22;39886;47.984;-1.586;2022-11-06T08:21:37;18.00;69.80
53978;DHT22;39886;47.984;-1.586;2022-11-06T08:24:03;18.00;69.80
53978;DHT22;39886;47.984;-1.586;2022-11-06T08:26:29;18.00;69.80
53978;DHT22;39886;47.984;-1.586;2022-11-06T08:28:56;18.00;69.80
53978;DHT22;39886;47.984;-1.586;2022-11-06T08:31:22;18.00;69.80
53978;DHT22;39886;47.984;-1.586;2022-11-06T08:33:48;18.00;69.80
53978;DHT22;39886;47.984;-1.586;2022-11-06T08:36:14;18.00;69.80
53978;DHT22;39886;47.984;-1.586;2022-11-06T08:38:41;18.00;69.80
53978;DHT22;39886;47.984;-1.586;2022-11-06T08:41:09;18.00;69.80
53978;DHT22;39886;47.984;-1.586;2022-11-06T08:43:36;18.00;69.90
53978;DHT22;39886;47.984;-1.586;2022-11-06T08:46:03;18.00;69.90
53978;DHT22;39886;47.984;-1.586;2022-11-06T08:48:29;18.00;69.90
53978;DHT22;39886;47.984;-1.586;2022-11-06T08:50:55;18.00;69.90
53978;DHT22;39886;47.984;-1.586;2022-11-06T08:53:21;18.00;69.90
53978;DHT22;39886;47.984;-1.586;2022-11-06T08:55:47;18.00;69.90
53978;DHT22;39886;47.984;-1.586;2022-11-06T08:58:13;18.00;69.90
53978;DHT22;39886;47.984;-1.586;2022-11-06T09:00:39;18.00;69.90
53978;DHT22;39886;47.984;-1.586;2022-11-06T09:03:12;18.00;69.90
53978;DHT22;39886;47.984;-1.586;2022-11-06T09:05:43;18.00;69.90
53978;DHT22;39886;47.984;-1.586;2022-11-06T09:08:09;18.00;69.90
53978;DHT22;39886;47.984;-1.586;2022-11-06T09:10:37;18.00;70.00
53978;DHT22;39886;47.984;-1.586;2022-11-06T09:13:02;18.00;70.00
53978;DHT22;39886;47.984;-1.586;2022-11-06T09:15:29;18.00;70.00
53978;DHT22;39886;47.984;-1.586;2022-11-06T09:17:55;18.00;70.00
53978;DHT22;39886;47.984;-1.586;2022-11-06T09:20:21;18.00;70.00
53978;DHT22;39886;47.984;-1.586;2022-11-06T09:22:48;18.00;70.00
53978;DHT22;39886;47.984;-1.586;2022-11-06T09:25:14;18.00;70.00
53978;DHT22;39886;47.984;-1.586;2022-11-06T09:27:43;18.00;70.00
53978;DHT22;39886;47.984;-1.586;2022-11-06T09:30:11;18.00;70.00
53978;DHT22;39886;47.984;-1.586;2022-11-06T09:32:38;18.00;70.00
53978;DHT22;39886;47.984;-1.586;2022-11-06T09:35:04;18.00;70.00
53978;DHT22;39886;47.984;-1.586;2022-11-06T09:37:30;18.00;70.10
53978;DHT22;39886;47.984;-1.586;2022-11-06T09:39:56;18.00;70.10
53978;DHT22;39886;47.984;-1.586;2022-11-06T09:42:49;18.00;70.10
53978;DHT22;39886;47.984;-1.586;2022-11-06T09:45:21;18.00;70.00
53978;DHT22;39886;47.984;-1.586;2022-11-06T09:50:31;18.00;70.00
53978;DHT22;39886;47.984;-1.586;2022-11-06T09:53:01;18.00;70.10
53978;DHT22;39886;47.984;-1.586;2022-11-06T09:55:38;18.00;70.10
53978;DHT22;39886;47.984;-1.586;2022-11-06T09:58:14;18.00;70.10
53978;DHT22;39886;47.984;-1.586;2022-11-06T10:00:41;18.00;70.10
53978;DHT22;39886;47.984;-1.586;2022-11-06T10:03:28;18.00;70.10
53978;DHT22;39886;47.984;-1.586;2022-11-06T10:05:55;18.00;70.10
53978;DHT22;39886;47.984;-1.586;2022-11-06T10:08:26;18.00;70.20
53978;DHT22;39886;47.984;-1.586;2022-11-06T10:16:24;18.00;70.10
53978;DHT22;39886;47.984;-1.586;2022-11-06T10:24:22;18.00;70.10
53978;DHT22;39886;47.984;-1.586;2022-11-06T10:26:51;18.00;70.20
53978;DHT22;39886;47.984;-1.586;2022-11-06T10:29:34;18.00;70.20
53978;DHT22;39886;47.984;-1.586;2022-11-06T10:34:33;18.00;70.10
53978;DHT22;39886;47.984;-1.586;2022-11-06T10:37:15;18.00;70.10
53978;DHT22;39886;47.984;-1.586;2022-11-06T10:39:43;18.00;70.10
53978;DHT22;39886;47.984;-1.586;2022-11-06T10:42:19;18.00;70.10
53978;DHT22;39886;47.984;-1.586;2022-11-06T10:44:52;18.10;70.10
53978;DHT22;39886;47.984;-1.586;2022-11-06T10:47:21;18.10;70.10
53978;DHT22;39886;47.984;-1.586;2022-11-06T10:49:51;18.10;70.10
53978;DHT22;39886;47.984;-1.586;2022-11-06T11:00:30;18.10;70.00
53978;DHT22;39886;47.984;-1.586;2022-11-06T11:03:05;18.10;70.00
53978;DHT22;39886;47.984;-1.586;2022-11-06T11:05:42;18.10;69.90
53978;DHT22;39886;47.984;-1.586;2022-11-06T11:16:30;18.20;69.80
53978;DHT22;39886;47.984;-1.586;2022-11-06T11:21:54;18.20;69.70
53978;DHT22;39886;47.984;-1.586;2022-11-06T11:24:20;18.20;69.80
53978;DHT22;39886;47.984;-1.586;2022-11-06T11:26:49;18.30;69.80
53978;DHT22;39886;47.984;-1.586;2022-11-06T11:29:24;18.20;69.70
53978;DHT22;39886;47.984;-1.586;2022-11-06T11:31:53;18.30;69.70
53978;DHT22;39886;47.984;-1.586;2022-11-06T11:34:23;18.30;69.70
53978;DHT22;39886;47.984;-1.586;2022-11-06T11:39:25;18.30;69.60
53978;DHT22;39886;47.984;-1.586;2022-11-06T11:41:51;18.30;69.60
53978;DHT22;39886;47.984;-1.586;2022-11-06T11:44:18;18.30;69.60
53978;DHT22;39886;47.984;-1.586;2022-11-06T11:46:50;18.40;69.60
53978;DHT22;39886;47.984;-1.586;2022-11-06T11:49:32;18.30;69.60
53978;DHT22;39886;47.984;-1.586;2022-11-06T11:52:04;18.40;69.70
53978;DHT22;39886;47.984;-1.586;2022-11-06T11:54:36;18.40;69.70
53978;DHT22;39886;47.984;-1.586;2022-11-06T11:57:05;18.30;69.70
53978;DHT22;39886;47.984;-1.586;2022-11-06T11:59:45;18.30;69.70
53978;DHT22;39886;47.984;-1.586;2022-11-06T12:04:45;18.30;69.70
53978;DHT22;39886;47.984;-1.586;2022-11-06T12:07:30;18.30;69.70
53978;DHT22;39886;47.984;-1.586;2022-11-06T12:09:58;18.30;69.70
53978;DHT22;39886;47.984;-1.586;2022-11-06T12:12:28;18.30;69.70
53978;DHT22;39886;47.984;-1.586;2022-11-06T12:18:04;18.40;69.70
53978;DHT22;39886;47.984;-1.586;2022-11-06T12:23:36;18.40;69.70
53978;DHT22;39886;47.984;-1.586;2022-11-06T12:29:12;18.40;69.70
53978;DHT22;39886;47.984;-1.586;2022-11-06T12:31:57;18.40;69.70
53978;DHT22;39886;47.984;-1.586;2022-11-06T12:34:37;18.40;69.70
53978;DHT22;39886;47.984;-1.586;2022-11-06T12:39:45;18.40;69.50
53978;DHT22;39886;47.984;-1.586;2022-11-06T12:42:13;18.40;69.50
53978;DHT22;39886;47.984;-1.586;2022-11-06T12:44:39;18.50;69.60
53978;DHT22;39886;47.984;-1.586;2022-11-06T12:47:32;18.40;69.50
53978;DHT22;39886;47.984;-1.586;2022-11-06T12:50:27;18.50;69.50
53978;DHT22;39886;47.984;-1.586;2022-11-06T12:53:01;18.40;69.50
53978;DHT22;39886;47.984;-1.586;2022-11-06T12:55:39;18.40;69.60
53978;DHT22;39886;47.984;-1.586;2022-11-06T13:01:08;18.50;69.60
53978;DHT22;39886;47.984;-1.586;2022-11-06T13:10:05;18.50;69.50
53978;DHT22;39886;47.984;-1.586;2022-11-06T13:15:18;18.50;69.40
53978;DHT22;39886;47.984;-1.586;2022-11-06T13:18:27;18.60;69.40
53978;DHT22;39886;47.984;-1.586;2022-11-06T13:23:30;18.50;69.40
53978;DHT22;39886;47.984;-1.586;2022-11-06T13:26:59;18.60;69.40
53978;DHT22;39886;47.984;-1.586;2022-11-06T13:29:09;18.60;69.40
53978;DHT22;39886;47.984;-1.586;2022-11-06T13:31:57;18.60;69.40
53978;DHT22;39886;47.984;-1.586;2022-11-06T13:34:31;18.60;69.40
53978;DHT22;39886;47.984;-1.586;2022-11-06T13:36:59;18.50;69.30
53978;DHT22;39886;47.984;-1.586;2022-11-06T13:39:32;18.60;69.40
53978;DHT22;39886;47.984;-1.586;2022-11-06T13:41:59;18.60;69.40
53978;DHT22;39886;47.984;-1.586;2022-11-06T13:44:26;18.60;69.40
53978;DHT22;39886;47.984;-1.586;2022-11-06T13:47:03;18.60;69.40
53978;DHT22;39886;47.984;-1.586;2022-11-06T13:55:31;18.60;69.40
53978;DHT22;39886;47.984;-1.586;2022-11-06T14:01:07;18.60;69.40
53978;DHT22;39886;47.984;-1.586;2022-11-06T14:03:51;18.60;69.40
53978;DHT22;39886;47.984;-1.586;2022-11-06T14:06:21;18.60;69.40
53978;DHT22;39886;47.984;-1.586;2022-11-06T14:08:51;18.60;69.50
53978;DHT22;39886;47.984;-1.586;2022-11-06T14:11:23;18.60;69.50
53978;DHT22;39886;47.984;-1.586;2022-11-06T14:14:11;18.60;69.50
53978;DHT22;39886;47.984;-1.586;2022-11-06T14:16:39;18.60;69.40
53978;DHT22;39886;47.984;-1.586;2022-11-06T14:21:48;18.60;69.40
53978;DHT22;39886;47.984;-1.586;2022-11-06T14:24:37;18.60;69.40
53978;DHT22;39886;47.984;-1.586;2022-11-06T14:30:05;18.70;69.50
53978;DHT22;39886;47.984;-1.586;2022-11-06T14:32:46;18.60;69.40
53978;DHT22;39886;47.984;-1.586;2022-11-06T14:40:36;18.70;69.40
53978;DHT22;39886;47.984;-1.586;2022-11-06T14:43:24;18.70;69.40
53978;DHT22;39886;47.984;-1.586;2022-11-06T14:46:06;18.70;69.50
53978;DHT22;39886;47.984;-1.586;2022-11-06T14:48:50;18.70;69.50
53978;DHT22;39886;47.984;-1.586;2022-11-06T14:51:27;18.70;69.50
53978;DHT22;39886;47.984;-1.586;2022-11-06T14:53:59;18.70;69.40
53978;DHT22;39886;47.984;-1.586;2022-11-06T14:56:29;18.70;69.40
53978;DHT22;39886;47.984;-1.586;2022-11-06T14:59:06;18.70;69.40
53978;DHT22;39886;47.984;-1.586;2022-11-06T15:01:34;18.70;69.40
53978;DHT22;39886;47.984;-1.586;2022-11-06T15:04:14;18.70;69.40
53978;DHT22;39886;47.984;-1.586;2022-11-06T15:06:43;18.70;69.40
53978;DHT22;39886;47.984;-1.586;2022-11-06T15:09:42;18.70;69.50
53978;DHT22;39886;47.984;-1.586;2022-11-06T15:12:06;18.70;69.50
53978;DHT22;39886;47.984;-1.586;2022-11-06T15:17:24;18.60;69.50
53978;DHT22;39886;47.984;-1.586;2022-11-06T15:19:54;18.70;69.60
53978;DHT22;39886;47.984;-1.586;2022-11-06T15:22:32;18.60;69.60
53978;DHT22;39886;47.984;-1.586;2022-11-06T15:25:19;18.60;69.70
53978;DHT22;39886;47.984;-1.586;2022-11-06T15:28:03;18.60;69.70
53978;DHT22;39886;47.984;-1.586;2022-11-06T15:30:37;18.60;69.70
53978;DHT22;39886;47.984;-1.586;2022-11-06T15:33:10;18.60;69.80
53978;DHT22;39886;47.984;-1.586;2022-11-06T15:35:37;18.60;69.80
53978;DHT22;39886;47.984;-1.586;2022-11-06T15:38:08;18.60;69.80
53978;DHT22;39886;47.984;-1.586;2022-11-06T15:40:37;18.60;69.80
53978;DHT22;39886;47.984;-1.586;2022-11-06T15:43:29;18.60;69.80
53978;DHT22;39886;47.984;-1.586;2022-11-06T15:46:12;18.60;69.70
53978;DHT22;39886;47.984;-1.586;2022-11-06T15:48:39;18.60;69.80
53978;DHT22;39886;47.984;-1.586;2022-11-06T15:51:26;18.60;69.80
53978;DHT22;39886;47.984;-1.586;2022-11-06T15:53:52;18.60;69.90
53978;DHT22;39886;47.984;-1.586;2022-11-06T15:56:21;18.60;69.90
53978;DHT22;39886;47.984;-1.586;2022-11-06T15:59:07;18.60;69.90
53978;DHT22;39886;47.984;-1.586;2022-11-06T16:01:34;18.60;69.90
53978;DHT22;39886;47.984;-1.586;2022-11-06T16:04:03;18.60;70.10
53978;DHT22;39886;47.984;-1.586;2022-11-06T16:06:31;18.60;69.90
53978;DHT22;39886;47.984;-1.586;2022-11-06T16:08:58;18.60;69.90
53978;DHT22;39886;47.984;-1.586;2022-11-06T16:11:24;18.60;70.00
53978;DHT22;39886;47.984;-1.586;2022-11-06T16:13:51;18.60;70.00
53978;DHT22;39886;47.984;-1.586;2022-11-06T16:16:49;18.60;70.00
53978;DHT22;39886;47.984;-1.586;2022-11-06T16:24:21;18.50;70.00
53978;DHT22;39886;47.984;-1.586;2022-11-06T16:26:49;18.50;70.00
53978;DHT22;39886;47.984;-1.586;2022-11-06T16:31:44;18.50;70.00
53978;DHT22;39886;47.984;-1.586;2022-11-06T16:34:36;18.50;70.00
53978;DHT22;39886;47.984;-1.586;2022-11-06T16:37:05;18.50;70.00
53978;DHT22;39886;47.984;-1.586;2022-11-06T16:39:47;18.50;70.10
53978;DHT22;39886;47.984;-1.586;2022-11-06T16:44:47;18.50;70.20
53978;DHT22;39886;47.984;-1.586;2022-11-06T16:47:19;18.50;70.20
53978;DHT22;39886;47.984;-1.586;2022-11-06T16:49:56;18.50;70.90
53978;DHT22;39886;47.984;-1.586;2022-11-06T16:54:50;18.50;70.20
53978;DHT22;39886;47.984;-1.586;2022-11-06T16:57:20;18.40;70.20
53978;DHT22;39886;47.984;-1.586;2022-11-06T17:02:36;18.40;70.20
53978;DHT22;39886;47.984;-1.586;2022-11-06T17:07:38;18.40;70.30
53978;DHT22;39886;47.984;-1.586;2022-11-06T17:13:18;18.40;70.30
53978;DHT22;39886;47.984;-1.586;2022-11-06T17:15:46;18.40;70.40
53978;DHT22;39886;47.984;-1.586;2022-11-06T17:18:16;18.40;70.40
53978;DHT22;39886;47.984;-1.586;2022-11-06T17:20:46;18.40;70.50
53978;DHT22;39886;47.984;-1.586;2022-11-06T17:23:13;18.40;70.50
53978;DHT22;39886;47.984;-1.586;2022-11-06T17:25:39;18.40;70.50
53978;DHT22;39886;47.984;-1.586;2022-11-06T17:28:05;18.30;70.50
53978;DHT22;39886;47.984;-1.586;2022-11-06T17:30:31;18.30;70.50
53978;DHT22;39886;47.984;-1.586;2022-11-06T17:32:56;18.30;70.50
53978;DHT22;39886;47.984;-1.586;2022-11-06T17:35:22;18.30;70.50
53978;DHT22;39886;47.984;-1.586;2022-11-06T17:37:48;18.30;70.60
53978;DHT22;39886;47.984;-1.586;2022-11-06T17:40:13;18.30;70.60
53978;DHT22;39886;47.984;-1.586;2022-11-06T17:42:39;18.30;70.60
53978;DHT22;39886;47.984;-1.586;2022-11-06T17:45:05;18.30;70.60
53978;DHT22;39886;47.984;-1.586;2022-11-06T17:47:31;18.30;70.60
53978;DHT22;39886;47.984;-1.586;2022-11-06T17:49:56;18.30;70.70
53978;DHT22;39886;47.984;-1.586;2022-11-06T17:52:23;18.20;70.60
53978;DHT22;39886;47.984;-1.586;2022-11-06T17:54:48;18.30;70.70
53978;DHT22;39886;47.984;-1.586;2022-11-06T17:57:14;18.30;70.70